Time;durP1;ratioP1;P1;durP2;ratioP2;P2;SDS_P1;SDS_P2;PMS_P1;PMS_P2;Temp;Humidity;BMP_temperature;BMP_pressure;BME280_temperature;BME280_humidity;BME280_pressure;Samples;Min_cycle;Max_cycle;Signal;HPM_P1;HPM_P2
2022/02/20 00:01:31;;;;;;;2.83;1.30;;;;;;;5.52;100.00;99715.50;5029061;28;20049;-55
2022/02/20 00:03:59;;;;;;;2.40;1.27;;;;;;;5.53;100.00;99715.91;5030984;28;20031;-57
2022/02/20 00:06:27;;;;;;;3.47;1.30;;;;;;;5.57;100.00;99710.69;5030228;28;20107;-53
2022/02/20 00:08:53;;;;;;;2.80;1.20;;;;;;;5.60;100.00;99709.19;5017253;28;20057;-55
2022/02/20 00:11:19;;;;;;;1.45;0.68;;;;;;;5.50;100.00;99710.50;5014859;28;20080;-56
2022/02/20 00:13:45;;;;;;;0.57;0.57;;;;;;;5.53;100.00;99707.91;5025235;28;20021;-55
2022/02/20 00:16:10;;;;;;;1.10;0.73;;;;;;;5.53;100.00;99705.22;5026971;28;20041;-56
2022/02/20 00:18:36;;;;;;;0.88;0.60;;;;;;;5.62;100.00;99704.28;5009293;28;20547;-55
2022/02/20 00:21:02;;;;;;;0.57;0.40;;;;;;;5.63;100.00;99703.97;5034529;28;20026;-56
2022/02/20 00:23:28;;;;;;;1.15;0.63;;;;;;;5.64;100.00;99697.50;5033554;28;20037;-58
2022/02/20 00:25:54;;;;;;;0.68;0.68;;;;;;;5.68;100.00;99700.25;5021860;28;20599;-53
2022/02/20 00:28:20;;;;;;;0.93;0.52;;;;;;;5.64;100.00;99699.38;5023930;28;20045;-58
2022/02/20 00:30:45;;;;;;;1.67;0.65;;;;;;;5.63;100.00;99701.28;5017238;28;20026;-55
2022/02/20 00:33:12;;;;;;;0.82;0.50;;;;;;;5.66;100.00;99692.59;5013732;28;20041;-54
2022/02/20 00:35:39;;;;;;;0.52;0.52;;;;;;;5.67;100.00;99710.16;5030470;28;20036;-55
2022/02/20 00:38:06;;;;;;;1.55;0.73;;;;;;;5.59;100.00;99707.66;5029133;28;20061;-52
2022/02/20 00:40:32;;;;;;;1.77;0.88;;;;;;;5.60;100.00;99699.31;5019306;28;20045;-51
2022/02/20 00:42:58;;;;;;;1.35;0.90;;;;;;;5.53;100.00;99703.69;5028094;28;20076;-53
2022/02/20 00:45:24;;;;;;;0.73;0.60;;;;;;;5.52;100.00;99712.84;5028849;28;20026;-53
2022/02/20 00:47:52;;;;;;;0.70;0.60;;;;;;;5.46;100.00;99699.72;5015763;28;20026;-56
2022/02/20 00:50:19;;;;;;;1.02;0.50;;;;;;;5.51;100.00;99704.03;5016342;28;20465;-55
2022/02/20 00:52:45;;;;;;;0.50;0.50;;;;;;;5.55;100.00;99701.47;5016967;28;20120;-56
2022/02/20 00:55:11;;;;;;;2.28;1.17;;;;;;;5.37;100.00;99709.81;5018350;28;20187;-51
2022/02/20 00:57:37;;;;;;;0.50;0.50;;;;;;;5.35;100.00;99704.03;5022826;28;20045;-57
2022/02/20 01:00:07;;;;;;;0.60;0.60;;;;;;;5.34;100.00;99707.06;5019372;28;20034;-51
2022/02/20 01:02:34;;;;;;;2.40;0.70;;;;;;;5.43;100.00;99699.66;5008742;28;20033;-51
2022/02/20 01:04:59;;;;;;;0.60;0.50;;;;;;;5.37;100.00;99701.00;5009519;28;20365;-53
2022/02/20 01:07:25;;;;;;;1.00;0.50;;;;;;;5.34;100.00;99705.13;5015098;28;20040;-56
2022/02/20 01:09:50;;;;;;;0.55;0.40;;;;;;;5.44;100.00;99699.28;5016860;28;20401;-52
2022/02/20 01:12:17;;;;;;;1.20;0.68;;;;;;;5.55;100.00;99698.78;5015031;28;20542;-53
2022/02/20 01:14:43;;;;;;;0.68;0.50;;;;;;;5.56;100.00;99697.66;5021873;28;20555;-53
2022/02/20 01:17:09;;;;;;;0.50;0.45;;;;;;;5.61;100.00;99694.75;5031112;28;20047;-54
2022/02/20 01:19:35;;;;;;;1.13;0.60;;;;;;;5.65;100.00;99695.59;5012297;28;20188;-56
2022/02/20 01:22:00;;;;;;;0.90;0.70;;;;;;;5.69;100.00;99694.56;5014352;28;20038;-51
2022/02/20 01:24:26;;;;;;;2.08;0.68;;;;;;;5.68;100.00;99701.03;5011964;28;20409;-55
2022/02/20 01:26:52;;;;;;;2.72;0.93;;;;;;;5.71;100.00;99702.25;5015107;28;20393;-58
2022/02/20 01:29:18;;;;;;;0.75;0.45;;;;;;;5.71;100.00;99699.56;5025258;28;20064;-55
2022/02/20 01:31:44;;;;;;;1.05;0.55;;;;;;;5.56;100.00;99682.41;5008581;28;20034;-57
2022/02/20 01:34:09;;;;;;;1.77;0.55;;;;;;;5.58;100.00;99706.09;5013226;28;20040;-57
2022/02/20 01:36:35;;;;;;;0.63;0.57;;;;;;;5.61;100.00;99710.75;5018029;28;20037;-57
2022/02/20 01:39:03;;;;;;;0.35;0.35;;;;;;;5.63;100.00;99713.88;5009601;28;20127;-56
2022/02/20 01:41:28;;;;;;;1.08;0.90;;;;;;;5.67;100.00;99710.16;5010485;28;20057;-56
2022/02/20 01:43:54;;;;;;;0.45;0.43;;;;;;;5.61;100.00;99716.09;5023606;28;20099;-57
2022/02/20 01:46:21;;;;;;;0.40;0.40;;;;;;;5.53;100.00;99714.38;5016093;28;20042;-56
2022/02/20 01:48:48;;;;;;;0.75;0.60;;;;;;;5.51;100.00;99706.72;5024064;28;20052;-54
2022/02/20 01:51:15;;;;;;;1.38;0.57;;;;;;;5.55;100.00;99696.91;5009430;28;20026;-57
2022/02/20 01:53:42;;;;;;;0.47;0.47;;;;;;;5.57;100.00;99704.56;5010016;28;20419;-53
2022/02/20 01:56:10;;;;;;;0.63;0.47;;;;;;;5.47;100.00;99700.50;5021097;28;20025;-56
2022/02/20 01:59:08;;;;;;;2.10;0.70;;;;;;;5.37;100.00;99699.13;5002099;28;20049;-56
2022/02/20 02:01:53;;;;;;;0.55;0.50;;;;;;;5.36;100.00;99705.56;5025467;28;20052;-56
2022/02/20 02:04:25;;;;;;;2.50;0.70;;;;;;;5.46;100.00;99705.06;5023947;28;20126;-56
2022/02/20 02:07:00;;;;;;;2.60;0.47;;;;;;;5.53;100.00;99719.72;5017681;28;20887;-54
2022/02/20 02:09:41;;;;;;;0.55;0.55;;;;;;;5.53;100.00;99715.91;5008129;28;20030;-58
2022/02/20 02:12:25;;;;;;;0.35;0.35;;;;;;;5.56;100.00;99708.34;5008726;28;20558;-53
2022/02/20 02:15:11;;;;;;;0.40;0.40;;;;;;;5.56;100.00;99713.69;5020340;28;20388;-57
2022/02/20 02:17:39;;;;;;;0.47;0.47;;;;;;;5.55;100.00;99712.91;5023032;28;20108;-56
2022/02/20 02:20:25;;;;;;;0.38;0.38;;;;;;;5.53;100.00;99715.16;5011654;28;20046;-49
2022/02/20 02:23:00;;;;;;;0.47;0.40;;;;;;;5.41;100.00;99728.56;5009524;28;20670;-57
2022/02/20 02:25:33;;;;;;;0.50;0.50;;;;;;;5.47;100.00;99729.88;5009679;28;20042;-56
2022/02/20 02:28:19;;;;;;;0.60;0.50;;;;;;;5.59;100.00;99727.13;5018536;28;20120;-55
2022/02/20 02:30:53;;;;;;;0.35;0.32;;;;;;;5.55;100.00;99720.94;5014929;28;20026;-58
2022/02/20 02:33:30;;;;;;;0.80;0.75;;;;;;;5.54;100.00;99714.03;5020734;28;20551;-55
2022/02/20 02:35:56;;;;;;;0.57;0.57;;;;;;;5.53;100.00;99712.50;5022450;28;20083;-55
2022/02/20 02:38:26;;;;;;;0.57;0.57;;;;;;;5.49;100.00;99709.72;5018764;28;20045;-58
2022/02/20 02:40:55;;;;;;;0.80;0.63;;;;;;;5.50;100.00;99699.81;5008447;28;20038;-51
2022/02/20 02:43:21;;;;;;;1.00;0.68;;;;;;;5.46;100.00;99705.06;5010413;28;20455;-54
2022/02/20 02:45:46;;;;;;;0.73;0.73;;;;;;;5.49;100.00;99709.72;5024240;28;20504;-51
2022/02/20 02:48:12;;;;;;;0.88;0.55;;;;;;;5.43;100.00;99719.13;5047117;28;20124;-56
2022/02/20 02:50:38;;;;;;;1.02;0.40;;;;;;;5.41;100.00;99717.91;5020711;28;20034;-51
2022/02/20 02:53:05;;;;;;;1.30;0.60;;;;;;;5.28;100.00;99727.84;5007955;28;20073;-54
2022/02/20 02:55:32;;;;;;;1.42;0.55;;;;;;;5.33;100.00;99730.28;5008625;28;20095;-51
2022/02/20 02:57:57;;;;;;;0.70;0.50;;;;;;;5.38;100.00;99730.03;5014488;28;20120;-50
2022/02/20 03:00:23;;;;;;;0.47;0.47;;;;;;;5.43;100.00;99748.47;5026864;28;20029;-55
2022/02/20 03:02:49;;;;;;;0.57;0.50;;;;;;;5.43;100.00;99756.47;5009069;28;20127;-56
2022/02/20 03:05:15;;;;;;;0.82;0.63;;;;;;;5.35;100.00;99745.94;5007521;28;20382;-51
2022/02/20 03:07:43;;;;;;;0.88;0.73;;;;;;;5.35;100.00;99751.28;5023791;28;20029;-51
2022/02/20 03:10:09;;;;;;;0.65;0.60;;;;;;;5.41;100.00;99750.72;5026430;28;20393;-51
2022/02/20 03:12:36;;;;;;;0.85;0.60;;;;;;;5.36;100.00;99753.63;5018941;28;20044;-53
2022/02/20 03:15:02;;;;;;;1.42;0.90;;;;;;;5.34;100.00;99761.19;5009656;28;20499;-53
2022/02/20 03:17:29;;;;;;;0.85;0.85;;;;;;;5.38;100.00;99766.63;5027337;28;20037;-57
2022/02/20 03:19:54;;;;;;;0.88;0.77;;;;;;;5.36;100.00;99764.28;5008891;28;20030;-54
2022/02/20 03:22:20;;;;;;;1.00;0.90;;;;;;;5.33;100.00;99770.31;5007313;28;20034;-54
2022/02/20 03:24:46;;;;;;;1.98;1.08;;;;;;;5.33;100.00;99778.34;5008002;28;20092;-58
2022/02/20 03:27:14;;;;;;;1.98;1.08;;;;;;;5.33;100.00;99772.22;5024222;28;20025;-54
2022/02/20 03:29:40;;;;;;;1.80;1.08;;;;;;;5.37;100.00;99786.44;5012020;28;20034;-49
2022/02/20 03:32:07;;;;;;;1.15;0.85;;;;;;;5.41;100.00;99781.97;5025343;28;20037;-53
2022/02/20 03:34:33;;;;;;;2.38;1.25;;;;;;;5.38;100.00;99786.09;5024799;28;20076;-56
2022/02/20 03:37:00;;;;;;;0.70;0.63;;;;;;;5.40;100.00;99785.75;5026862;28;20400;-58
2022/02/20 03:39:33;;;;;;;1.40;1.20;;;;;;;5.37;100.00;99791.75;5010767;28;20026;-58
2022/02/20 03:42:04;;;;;;;1.85;0.90;;;;;;;5.50;100.00;99804.72;5016160;28;20033;-56
2022/02/20 03:44:48;;;;;;;1.50;1.17;;;;;;;5.45;100.00;99812.97;5020850;28;20592;-57
2022/02/20 03:47:16;;;;;;;3.40;1.70;;;;;;;5.43;100.00;99822.44;5041611;28;20491;-54
2022/02/20 03:49:44;;;;;;;2.15;1.23;;;;;;;5.43;100.00;99825.91;5030650;28;20042;-57
2022/02/20 03:52:32;;;;;;;2.50;1.10;;;;;;;5.45;100.00;99839.69;5011757;28;20041;-56
2022/02/20 03:55:00;;;;;;;3.20;2.00;;;;;;;5.34;100.00;99845.84;5018187;28;20021;-56
2022/02/20 03:57:32;;;;;;;2.75;1.40;;;;;;;5.43;100.00;99846.47;5003562;28;20026;-58
2022/02/20 04:00:19;;;;;;;1.70;1.35;;;;;;;5.40;100.00;99853.25;5019541;28;20132;-53
2022/02/20 04:02:53;;;;;;;2.10;1.30;;;;;;;5.41;100.00;99851.38;5016760;28;20040;-56
2022/02/20 04:05:20;;;;;;;2.33;1.35;;;;;;;5.37;100.00;99853.94;5011320;28;20029;-58
2022/02/20 04:07:46;;;;;;;2.03;1.38;;;;;;;5.39;100.00;99870.41;5009696;28;20036;-56
2022/02/20 04:10:13;;;;;;;2.97;1.42;;;;;;;5.43;100.00;99870.50;5027091;28;20021;-57
2022/02/20 04:12:40;;;;;;;2.15;1.17;;;;;;;5.43;100.00;99870.50;5029218;28;20492;-57
2022/02/20 04:15:10;;;;;;;1.35;1.17;;;;;;;5.42;100.00;99871.59;5020209;28;20128;-55
2022/02/20 04:17:41;;;;;;;2.85;1.65;;;;;;;5.46;100.00;99881.25;5024362;28;20519;-58
2022/02/20 04:20:09;;;;;;;5.20;1.75;;;;;;;5.40;100.00;99881.84;5010952;28;20030;-57
2022/02/20 04:22:36;;;;;;;3.47;1.58;;;;;;;5.40;100.00;99887.19;5010582;28;20478;-56
2022/02/20 04:25:03;;;;;;;2.72;1.50;;;;;;;5.33;100.00;99884.31;5018942;28;20567;-53
2022/02/20 04:27:28;;;;;;;3.20;1.67;;;;;;;5.34;100.00;99894.63;5023558;28;20133;-49
2022/02/20 04:29:54;;;;;;;1.98;1.52;;;;;;;5.27;100.00;99896.34;5012871;28;20039;-51
2022/02/20 04:32:19;;;;;;;2.95;2.08;;;;;;;5.28;100.00;99900.56;5009812;28;20036;-53
2022/02/20 04:34:45;;;;;;;3.45;1.98;;;;;;;5.24;100.00;99916.47;5027281;28;20029;-48
2022/02/20 04:37:13;;;;;;;2.50;1.70;;;;;;;5.17;100.00;99916.25;5029946;28;20033;-48
2022/02/20 04:39:38;;;;;;;3.03;2.13;;;;;;;5.25;100.00;99915.34;5016626;28;20028;-48
2022/02/20 04:42:05;;;;;;;2.97;1.92;;;;;;;5.29;100.00;99932.25;5028946;28;20052;-48
2022/02/20 04:44:40;;;;;;;5.80;1.95;;;;;;;5.33;100.00;99927.78;5017302;28;20197;-54
2022/02/20 04:47:11;;;;;;;4.28;2.22;;;;;;;5.30;100.00;99923.13;5027406;28;20045;-49
2022/02/20 04:49:38;;;;;;;6.22;2.75;;;;;;;5.28;100.00;99925.34;5023916;28;20077;-48
2022/02/20 04:52:20;;;;;;;2.72;1.42;;;;;;;5.22;100.00;99945.41;4997694;28;20069;-50
2022/02/20 04:55:05;;;;;;;7.90;2.45;;;;;;;5.23;100.00;99936.25;5029661;28;20145;-50
2022/02/20 04:57:36;;;;;;;2.28;1.63;;;;;;;5.25;100.00;99926.03;5023616;28;20485;-50
2022/02/20 05:00:04;;;;;;;4.07;2.27;;;;;;;5.31;100.00;99924.69;5034251;28;20068;-50
2022/02/20 05:02:50;;;;;;;7.57;2.13;;;;;;;5.29;100.00;99921.56;5021335;28;20300;-48
2022/02/20 05:05:15;;;;;;;3.72;1.52;;;;;;;5.36;100.00;99929.78;5021195;28;20040;-49
2022/02/20 05:07:41;;;;;;;4.15;2.25;;;;;;;5.39;100.00;99925.66;5003596;28;20073;-53
2022/02/20 05:10:11;;;;;;;3.03;2.13;;;;;;;5.40;100.00;99922.66;5024911;28;20481;-48
2022/02/20 05:12:37;;;;;;;4.43;2.00;;;;;;;5.32;100.00;99926.22;5028357;28;20040;-52
2022/02/20 05:15:03;;;;;;;4.25;2.28;;;;;;;5.36;100.00;99929.78;5028136;28;20060;-50
2022/02/20 05:17:39;;;;;;;3.90;2.03;;;;;;;5.44;100.00;99938.75;5025989;28;20542;-55
2022/02/20 05:20:07;;;;;;;5.65;2.25;;;;;;;5.36;100.00;99924.44;5007268;28;20036;-51
2022/02/20 05:22:33;;;;;;;3.92;1.83;;;;;;;5.43;100.00;99926.53;5026881;28;20071;-52
2022/02/20 05:25:02;;;;;;;3.72;1.90;;;;;;;5.45;100.00;99927.78;5009643;28;20018;-54
2022/02/20 05:27:30;;;;;;;2.33;1.88;;;;;;;5.42;100.00;99923.09;5009039;28;20041;-51
2022/02/20 05:29:56;;;;;;;4.45;2.15;;;;;;;5.38;100.00;99916.88;5024027;28;20071;-50
2022/02/20 05:32:23;;;;;;;5.78;2.28;;;;;;;5.38;100.00;99914.19;5027784;28;20025;-51
2022/02/20 05:34:57;;;;;;;4.25;1.95;;;;;;;5.39;100.00;99905.09;5015790;28;20025;-54
2022/02/20 05:37:24;;;;;;;7.10;2.40;;;;;;;5.43;100.00;99899.84;5023074;28;20049;-52
2022/02/20 05:39:50;;;;;;;5.07;2.15;;;;;;;5.43;100.00;99913.19;5020671;28;20037;-50
2022/02/20 05:42:17;;;;;;;4.47;2.60;;;;;;;5.41;100.00;99899.41;5016526;28;20033;-53
2022/02/20 05:44:50;;;;;;;3.88;2.55;;;;;;;5.40;100.00;99906.63;5019320;28;20083;-53
2022/02/20 05:47:16;;;;;;;6.40;2.58;;;;;;;5.48;100.00;99920.97;5017482;28;20025;-54
2022/02/20 05:49:46;;;;;;;3.53;2.00;;;;;;;5.43;100.00;99921.22;5012364;28;20049;-57
2022/02/20 05:52:12;;;;;;;4.10;1.65;;;;;;;5.47;100.00;99914.06;5023277;28;20076;-57
2022/02/20 05:54:42;;;;;;;7.38;2.42;;;;;;;5.38;100.00;99910.78;5019540;28;20030;-57
2022/02/20 05:57:08;;;;;;;4.88;2.33;;;;;;;5.43;100.00;99910.53;5019142;28;20236;-57
2022/02/20 05:59:38;;;;;;;4.38;2.08;;;;;;;5.36;100.00;99916.44;5018466;28;20022;-59
2022/02/20 06:02:04;;;;;;;5.38;2.08;;;;;;;5.30;100.00;99915.09;5016766;28;20032;-58
2022/02/20 06:04:30;;;;;;;3.45;2.33;;;;;;;5.35;100.00;99906.88;5024985;28;20129;-56
2022/02/20 06:07:03;;;;;;;3.45;1.73;;;;;;;5.36;100.00;99913.75;5027378;28;20440;-54
2022/02/20 06:09:49;;;;;;;5.30;1.65;;;;;;;5.40;100.00;99917.31;5023012;28;20025;-50
2022/02/20 06:12:27;;;;;;;5.80;2.28;;;;;;;5.41;100.00;99912.75;5020860;28;20030;-53
2022/02/20 06:15:12;;;;;;;3.92;1.60;;;;;;;5.32;100.00;99912.88;5017832;28;20041;-49
2022/02/20 06:17:58;;;;;;;2.63;1.48;;;;;;;5.35;100.00;99916.78;5007652;28;20081;-50
2022/02/20 06:20:36;;;;;;;5.70;2.30;;;;;;;5.33;100.00;99925.13;5013567;28;20404;-50
2022/02/20 06:23:10;;;;;;;3.92;1.77;;;;;;;5.37;100.00;99922.56;5027680;28;20033;-48
2022/02/20 06:26:00;;;;;;;3.75;1.83;;;;;;;5.32;100.00;99917.47;5025845;28;20069;-51
2022/02/20 06:28:28;;;;;;;4.03;1.77;;;;;;;5.36;100.00;99918.34;5025114;28;20033;-50
2022/02/20 06:30:55;;;;;;;5.00;1.95;;;;;;;5.40;100.00;99919.22;5014936;28;20030;-51
2022/02/20 06:33:24;;;;;;;3.75;1.60;;;;;;;5.45;100.00;99922.44;5024642;28;20568;-53
2022/02/20 06:35:50;;;;;;;2.67;1.70;;;;;;;5.52;100.00;99929.09;5027128;28;20117;-50
2022/02/20 06:38:16;;;;;;;5.60;2.08;;;;;;;5.50;100.00;99924.84;5027145;28;20044;-53
2022/02/20 06:40:44;;;;;;;4.88;1.90;;;;;;;5.32;100.00;99926.22;5026930;28;20036;-51
2022/02/20 06:43:10;;;;;;;3.40;1.80;;;;;;;5.27;100.00;99929.13;5026055;28;20034;-55
2022/02/20 06:45:38;;;;;;;2.95;1.77;;;;;;;5.28;100.00;99932.59;5024529;28;20037;-52
2022/02/20 06:48:24;;;;;;;3.75;2.10;;;;;;;5.29;100.00;99929.59;5025133;28;20025;-53
2022/02/20 06:51:10;;;;;;;3.58;1.80;;;;;;;5.27;100.00;99931.03;5035349;28;20116;-53
2022/02/20 06:53:47;;;;;;;2.65;2.20;;;;;;;5.28;100.00;99933.34;5032676;28;20033;-50
2022/02/20 06:56:39;;;;;;;6.43;1.63;;;;;;;5.31;100.00;99921.22;5023491;28;20046;-49
2022/02/20 06:59:05;;;;;;;6.15;2.40;;;;;;;5.29;100.00;99915.44;5006247;28;20036;-50
2022/02/20 07:01:30;;;;;;;2.80;1.42;;;;;;;5.40;100.00;99913.88;5014828;28;20507;-53
2022/02/20 07:03:56;;;;;;;4.32;1.77;;;;;;;5.31;100.00;99921.22;5025046;28;20441;-49
2022/02/20 07:06:21;;;;;;;2.65;1.65;;;;;;;5.34;100.00;99910.66;5009231;28;20033;-50
2022/02/20 07:08:50;;;;;;;3.95;2.33;;;;;;;5.40;100.00;99906.63;5009288;28;20117;-54
2022/02/20 07:11:15;;;;;;;10.20;1.85;;;;;;;5.37;100.00;99901.19;5027972;28;20040;-54
2022/02/20 07:13:41;;;;;;;2.95;1.58;;;;;;;5.23;100.00;99909.56;5016278;28;20041;-50
2022/02/20 07:16:06;;;;;;;3.17;1.55;;;;;;;5.15;100.00;99910.47;5011489;28;20547;-48
2022/02/20 07:18:32;;;;;;;2.42;1.65;;;;;;;5.26;100.00;99919.59;5024856;28;20044;-48
2022/02/20 07:20:57;;;;;;;3.97;1.45;;;;;;;5.30;100.00;99917.03;5027821;28;20041;-51
2022/02/20 07:23:22;;;;;;;3.38;1.50;;;;;;;5.37;100.00;99918.00;5020315;28;20029;-52
2022/02/20 07:25:48;;;;;;;3.70;1.60;;;;;;;5.33;100.00;99919.78;5012290;28;20034;-49
2022/02/20 07:28:13;;;;;;;2.50;1.45;;;;;;;5.34;100.00;99910.66;5008381;28;20034;-53
2022/02/20 07:30:39;;;;;;;3.88;2.00;;;;;;;5.28;100.00;99912.00;5018306;28;20065;-50
2022/02/20 07:33:05;;;;;;;5.80;1.83;;;;;;;5.33;100.00;99908.31;5014969;28;20025;-50
2022/02/20 07:35:37;;;;;;;5.65;1.98;;;;;;;5.46;100.00;99912.50;5022440;28;20098;-50
2022/02/20 07:38:03;;;;;;;2.63;1.80;;;;;;;5.34;100.00;99909.91;5031641;28;20116;-53
2022/02/20 07:40:29;;;;;;;4.07;1.80;;;;;;;5.36;100.00;99908.44;5017642;28;20037;-49
2022/02/20 07:42:55;;;;;;;2.15;1.48;;;;;;;5.36;100.00;99897.75;5021886;28;20409;-49
2022/02/20 07:45:23;;;;;;;3.22;1.50;;;;;;;5.32;100.00;99904.13;5015949;28;20484;-49
2022/02/20 07:47:53;;;;;;;2.15;1.20;;;;;;;5.30;100.00;99904.44;5021728;28;20042;-48
2022/02/20 07:50:21;;;;;;;3.22;1.35;;;;;;;5.43;100.00;99900.63;5018685;28;20033;-55
2022/02/20 07:52:46;;;;;;;2.30;1.15;;;;;;;5.37;100.00;99898.53;5027157;28;20064;-53
2022/02/20 07:55:12;;;;;;;3.45;1.42;;;;;;;5.35;100.00;99903.44;5028220;28;20135;-56
2022/02/20 07:57:38;;;;;;;5.75;1.58;;;;;;;5.32;100.00;99909.47;5011919;28;20034;-52
2022/02/20 08:00:05;;;;;;;2.25;1.25;;;;;;;5.31;100.00;99910.56;5019181;28;20400;-49
2022/02/20 08:02:41;;;;;;;2.60;1.55;;;;;;;5.33;100.00;99911.00;5024198;28;20037;-57
2022/02/20 08:05:07;;;;;;;1.58;1.42;;;;;;;5.39;100.00;99897.09;5026536;28;20111;-55
2022/02/20 08:07:32;;;;;;;2.42;1.42;;;;;;;5.16;100.00;99892.59;5019787;28;20507;-58
2022/02/20 08:09:58;;;;;;;1.65;1.20;;;;;;;5.14;100.00;99900.94;5038791;28;20040;-56
2022/02/20 08:12:23;;;;;;;2.38;2.03;;;;;;;5.22;100.00;99897.38;5025499;28;20104;-57
2022/02/20 08:14:49;;;;;;;1.75;1.17;;;;;;;5.40;100.00;99893.28;5017449;28;20447;-55
2022/02/20 08:17:15;;;;;;;2.17;1.33;;;;;;;5.39;100.00;99878.41;5023814;28;20419;-54
2022/02/20 08:19:40;;;;;;;2.55;1.60;;;;;;;5.36;100.00;99887.06;5024714;28;20117;-56
2022/02/20 08:22:06;;;;;;;2.25;1.13;;;;;;;5.30;100.00;99883.09;5024470;28;20083;-54
2022/02/20 08:24:32;;;;;;;3.03;1.33;;;;;;;5.32;100.00;99882.78;5018427;28;20942;-54
2022/02/20 08:26:57;;;;;;;2.15;1.65;;;;;;;5.12;100.00;99879.16;5027794;28;20052;-58
2022/02/20 08:29:23;;;;;;;2.60;0.95;;;;;;;5.11;100.00;99880.25;5023652;28;20416;-56
2022/02/20 08:31:49;;;;;;;1.85;1.33;;;;;;;5.00;100.00;99868.50;5017924;28;20104;-55
2022/02/20 08:34:15;;;;;;;4.32;1.73;;;;;;;4.71;100.00;99870.63;5016346;28;20038;-53
2022/02/20 08:36:41;;;;;;;1.77;0.93;;;;;;;4.88;100.00;99871.19;5018649;28;20032;-58
2022/02/20 08:39:07;;;;;;;2.20;1.38;;;;;;;4.86;100.00;99857.41;5018316;28;20614;-57
2022/02/20 08:41:35;;;;;;;1.17;0.85;;;;;;;4.91;100.00;99853.72;5019171;28;20036;-57
2022/02/20 08:44:01;;;;;;;1.50;1.38;;;;;;;4.92;100.00;99849.94;5040175;28;20037;-58
2022/02/20 08:46:26;;;;;;;1.35;0.73;;;;;;;4.97;100.00;99845.19;5044300;28;20090;-55
2022/02/20 08:48:52;;;;;;;1.83;1.33;;;;;;;4.97;100.00;99841.72;5036169;28;20194;-58
2022/02/20 08:51:18;;;;;;;3.53;1.25;;;;;;;5.06;100.00;99835.13;5041632;28;20482;-58
2022/02/20 08:53:44;;;;;;;1.75;1.02;;;;;;;4.97;100.00;99831.84;5038682;28;20048;-56
2022/02/20 08:56:10;;;;;;;1.50;1.00;;;;;;;4.95;100.00;99831.41;5033951;28;20048;-53
2022/02/20 08:58:36;;;;;;;3.25;1.00;;;;;;;4.98;100.00;99817.38;5022354;28;20452;-55
2022/02/20 09:01:02;;;;;;;2.47;1.70;;;;;;;4.98;100.00;99814.69;5008412;28;20446;-58
2022/02/20 09:03:31;;;;;;;2.03;1.30;;;;;;;5.16;100.00;99796.53;5020295;28;20041;-59
2022/02/20 09:05:56;;;;;;;5.60;1.15;;;;;;;5.13;100.00;99800.66;5022174;28;20037;-57
2022/02/20 09:08:22;;;;;;;1.45;0.85;;;;;;;5.10;100.00;99797.88;5023875;28;20025;-58
2022/02/20 09:10:48;;;;;;;2.83;1.38;;;;;;;5.24;100.00;99791.06;5024372;28;20082;-58
2022/02/20 09:13:16;;;;;;;1.13;0.90;;;;;;;5.19;100.00;99790.50;5023330;28;20442;-58
2022/02/20 09:15:43;;;;;;;2.00;1.48;;;;;;;5.05;100.00;99764.22;5025083;28;20400;-58
2022/02/20 09:18:08;;;;;;;3.05;1.00;;;;;;;5.14;100.00;99766.75;5012133;28;20041;-57
2022/02/20 09:20:34;;;;;;;1.65;1.20;;;;;;;4.97;100.00;99757.16;5030549;28;20033;-56
2022/02/20 09:22:59;;;;;;;2.78;1.35;;;;;;;5.22;100.00;99763.16;5030477;28;20041;-56
2022/02/20 09:25:25;;;;;;;1.65;1.20;;;;;;;5.10;100.00;99736.50;5016087;28;20177;-56
2022/02/20 09:27:50;;;;;;;2.55;1.27;;;;;;;5.05;100.00;99726.84;5026393;28;20425;-59
2022/02/20 09:30:16;;;;;;;2.53;1.42;;;;;;;5.05;100.00;99720.78;5023195;28;20061;-59
2022/02/20 09:32:42;;;;;;;2.03;0.88;;;;;;;5.06;100.00;99706.31;5026522;28;20044;-59
2022/02/20 09:35:08;;;;;;;1.27;0.88;;;;;;;5.15;100.00;99701.59;5033032;28;20041;-58
2022/02/20 09:37:33;;;;;;;1.38;1.08;;;;;;;5.17;100.00;99689.44;5023366;28;20029;-59
2022/02/20 09:39:59;;;;;;;0.65;0.65;;;;;;;5.00;100.00;99684.44;5028583;28;20116;-59
2022/02/20 09:42:26;;;;;;;2.80;1.13;;;;;;;4.99;100.00;99674.91;5019664;28;20053;-59
2022/02/20 09:44:51;;;;;;;1.15;0.88;;;;;;;4.97;100.00;99668.34;5026056;28;20045;-59
2022/02/20 09:47:17;;;;;;;1.13;0.95;;;;;;;4.95;100.00;99658.03;5027403;28;20044;-59
2022/02/20 09:49:44;;;;;;;2.47;1.42;;;;;;;4.99;100.00;99653.56;5026064;28;20033;-60
2022/02/20 09:52:09;;;;;;;4.63;1.83;;;;;;;4.96;100.00;99648.09;5022476;28;20025;-58
2022/02/20 09:54:35;;;;;;;5.57;2.47;;;;;;;5.12;100.00;99640.91;5030257;28;20041;-56
2022/02/20 09:57:01;;;;;;;4.43;1.80;;;;;;;5.10;100.00;99640.47;5015252;28;20046;-59
2022/02/20 09:59:26;;;;;;;2.53;1.77;;;;;;;4.94;100.00;99629.78;5022303;28;20052;-58
2022/02/20 10:02:12;;;;;;;2.95;1.35;;;;;;;5.15;100.00;99630.31;5026431;28;20038;-55
2022/02/20 10:04:40;;;;;;;1.58;0.75;;;;;;;5.08;100.00;99619.47;5026065;28;20416;-59
2022/02/20 10:07:08;;;;;;;2.17;1.17;;;;;;;5.03;100.00;99610.97;5029838;28;20037;-59
2022/02/20 10:09:38;;;;;;;1.23;0.85;;;;;;;5.12;100.00;99611.56;5029153;28;20044;-59
2022/02/20 10:12:18;;;;;;;2.67;1.17;;;;;;;5.10;100.00;99598.56;5024115;28;20053;-57
2022/02/20 10:14:43;;;;;;;2.55;0.80;;;;;;;5.09;100.00;99591.66;5008998;28;20041;-54
2022/02/20 10:17:17;;;;;;;2.08;1.27;;;;;;;4.97;100.00;99580.31;5024242;28;20581;-57
2022/02/20 10:20:06;;;;;;;1.17;0.88;;;;;;;4.98;100.00;99576.53;5023705;28;20049;-58
2022/02/20 10:22:51;;;;;;;1.77;1.15;;;;;;;4.84;100.00;99574.28;5021925;28;20059;-56
2022/02/20 10:25:49;;;;;;;1.50;1.10;;;;;;;4.82;100.00;99571.19;5046409;28;20458;-58
2022/02/20 10:28:33;;;;;;;1.88;1.40;;;;;;;4.81;100.00;99558.97;5035323;28;20052;-51
2022/02/20 10:31:03;;;;;;;1.77;1.13;;;;;;;4.94;100.00;99549.78;5030203;28;20057;-57
2022/02/20 10:33:28;;;;;;;1.98;0.77;;;;;;;4.94;100.00;99549.78;5026684;28;20443;-58
2022/02/20 10:35:54;;;;;;;1.63;1.02;;;;;;;4.99;100.00;99540.75;5028788;28;20055;-58
2022/02/20 10:38:20;;;;;;;2.33;1.50;;;;;;;5.00;100.00;99526.28;5022390;28;20049;-60
2022/02/20 10:40:48;;;;;;;2.17;0.70;;;;;;;4.88;100.00;99539.72;5026807;28;20049;-58
2022/02/20 10:43:27;;;;;;;1.20;0.60;;;;;;;4.57;100.00;99514.56;5028946;28;20149;-57
2022/02/20 10:46:10;;;;;;;1.35;0.77;;;;;;;4.70;100.00;99512.63;5026140;28;20103;-57
2022/02/20 10:48:44;;;;;;;2.13;1.05;;;;;;;4.88;100.00;99508.47;5033473;28;20098;-59
2022/02/20 10:51:11;;;;;;;2.03;0.70;;;;;;;4.83;100.00;99491.97;5042909;28;20056;-59
2022/02/20 10:53:36;;;;;;;0.85;0.77;;;;;;;4.77;100.00;99488.78;5013214;28;20025;-57
2022/02/20 10:56:02;;;;;;;0.57;0.57;;;;;;;4.93;100.00;99484.22;5019877;28;20021;-56
2022/02/20 10:58:30;;;;;;;1.23;0.70;;;;;;;4.93;100.00;99467.44;5043736;28;20516;-59
2022/02/20 11:01:02;;;;;;;0.80;0.70;;;;;;;4.86;100.00;99462.72;5031851;28;20044;-56
2022/02/20 11:03:28;;;;;;;;;;;;;;;4.73;100.00;99441.81;5038892;28;20400;-51
2022/02/20 11:05:55;;;;;;;0.80;0.80;;;;;;;4.85;100.00;99452.38;5034056;28;19912;-59
2022/02/20 11:08:24;;;;;;;1.13;0.88;;;;;;;4.71;100.00;99439.50;5051875;28;20139;-58
2022/02/20 11:10:50;;;;;;;0.73;0.32;;;;;;;4.66;100.00;99413.13;5031908;28;20538;-59
2022/02/20 11:13:17;;;;;;;2.03;0.85;;;;;;;4.85;100.00;99436.38;5043137;28;20400;-53
2022/02/20 11:15:45;;;;;;;1.20;0.28;;;;;;;4.84;100.00;99432.94;5026994;28;20443;-61
2022/02/20 11:18:16;;;;;;;0.77;0.60;;;;;;;4.96;100.00;99413.41;5010247;28;20528;-54
2022/02/20 11:20:48;;;;;;;1.10;0.93;;;;;;;4.86;100.00;99398.72;5028610;28;20037;-56
2022/02/20 11:23:21;;;;;;;2.40;0.93;;;;;;;4.93;100.00;99390.88;5024916;28;20129;-56
2022/02/20 11:25:49;;;;;;;0.90;0.63;;;;;;;5.01;100.00;99392.59;5029621;28;20072;-52
2022/02/20 11:28:15;;;;;;;1.38;0.82;;;;;;;5.06;100.00;99381.63;5031565;28;20453;-53
2022/02/20 11:30:42;;;;;;;1.40;0.80;;;;;;;4.99;100.00;99370.03;5021848;28;20116;-51
2022/02/20 11:33:10;;;;;;;0.65;0.65;;;;;;;5.02;100.00;99372.00;5022538;28;20488;-53
2022/02/20 11:35:53;;;;;;;1.98;0.68;;;;;;;5.08;100.00;99362.59;5017528;28;20643;-49
2022/02/20 11:38:21;;;;;;;1.92;0.70;;;;;;;5.09;100.00;99358.81;5041187;28;20148;-53
2022/02/20 11:40:58;;;;;;;0.80;0.63;;;;;;;5.07;100.00;99345.06;5013840;28;20038;-47
2022/02/20 11:43:41;;;;;;;1.38;0.73;;;;;;;5.08;100.00;99339.38;5030033;28;20037;-55